Time;durP1;ratioP1;P1;durP2;ratioP2;P2;SDS_P1;SDS_P2;PMS_P1;PMS_P2;Temp;Humidity;BMP_temperature;BMP_pressure;BME280_temperature;BME280_humidity;BME280_pressure;Samples;Min_cycle;Max_cycle;Signal;HPM_P1;HPM_P2
2024/01/20 00:00:15;;;;;;;10.13;2.70;;;1.60;99.90;;;;;;5074123;28;20169;-64
2024/01/20 00:02:41;;;;;;;8.35;2.40;;;1.50;99.90;;;;;;5108675;28;20047;-65
2024/01/20 00:05:07;;;;;;;9.43;2.00;;;1.60;99.90;;;;;;5107150;28;20042;-64
2024/01/20 00:07:33;;;;;;;8.48;2.38;;;1.40;99.90;;;;;;5122724;27;20114;-64
2024/01/20 00:09:59;;;;;;;15.00;3.67;;;1.60;99.90;;;;;;5107115;28;20154;-66
2024/01/20 00:12:24;;;;;;;10.10;2.90;;;1.50;99.90;;;;;;5106751;28;20040;-64
2024/01/20 00:14:50;;;;;;;14.98;3.38;;;1.60;99.90;;;;;;5111059;27;20043;-64
2024/01/20 00:17:16;;;;;;;13.57;3.25;;;1.70;99.90;;;;;;5089197;28;20035;-66
2024/01/20 00:19:42;;;;;;;12.48;3.20;;;1.60;99.90;;;;;;5077123;28;20374;-65
2024/01/20 00:22:08;;;;;;;12.45;3.10;;;1.60;99.90;;;;;;5072953;28;20035;-65
2024/01/20 00:24:34;;;;;;;14.63;3.45;;;1.70;99.90;;;;;;5106311;28;20396;-64
2024/01/20 00:27:00;;;;;;;13.90;3.00;;;1.70;99.90;;;;;;5076192;28;20118;-64
2024/01/20 00:29:25;;;;;;;11.63;3.20;;;1.80;99.90;;;;;;5105847;28;20040;-64
2024/01/20 00:31:51;;;;;;;11.20;3.45;;;1.80;99.90;;;;;;5089812;28;20067;-65
2024/01/20 00:34:17;;;;;;;11.15;3.63;;;1.80;99.90;;;;;;5106139;28;20044;-66
2024/01/20 00:36:43;;;;;;;14.98;4.03;;;1.70;99.90;;;;;;5084458;28;20066;-64
2024/01/20 00:39:08;;;;;;;12.95;3.88;;;1.70;99.90;;;;;;5105973;28;20047;-66
2024/01/20 00:41:35;;;;;;;13.07;3.65;;;1.70;99.90;;;;;;5110496;27;20047;-65
2024/01/20 00:44:01;;;;;;;13.43;4.07;;;1.70;99.90;;;;;;5105510;28;20089;-64
2024/01/20 00:46:26;;;;;;;10.13;3.78;;;1.80;99.90;;;;;;5107221;28;20065;-64
2024/01/20 00:48:52;;;;;;;15.77;4.55;;;1.80;99.90;;;;;;5105537;28;20055;-66
2024/01/20 00:51:18;;;;;;;11.38;4.43;;;1.60;99.90;;;;;;5087814;28;20077;-65
2024/01/20 00:53:44;;;;;;;13.70;4.35;;;1.60;99.90;;;;;;5105631;28;20919;-64
2024/01/20 00:56:09;;;;;;;12.52;3.92;;;1.60;99.90;;;;;;5089314;28;20043;-65
2024/01/20 00:58:35;;;;;;;13.75;5.25;;;1.50;99.90;;;;;;5105920;28;20044;-64
2024/01/20 01:01:01;;;;;;;11.63;4.57;;;1.60;99.90;;;;;;5087447;28;20032;-65
2024/01/20 01:03:27;;;;;;;14.23;5.18;;;1.40;99.90;;;;;;5105730;28;20043;-64
2024/01/20 01:05:52;;;;;;;13.65;5.32;;;1.40;99.90;;;;;;5105959;28;20043;-64
2024/01/20 01:08:18;;;;;;;13.93;5.97;;;1.50;99.90;;;;;;5104897;28;20533;-65
2024/01/20 01:10:44;;;;;;;15.48;6.60;;;1.30;99.90;;;;;;5087981;28;20044;-64
2024/01/20 01:13:10;;;;;;;14.55;5.80;;;1.40;99.90;;;;;;5105797;28;20391;-64
2024/01/20 01:15:35;;;;;;;12.73;6.45;;;1.40;99.90;;;;;;5088098;28;20419;-65
2024/01/20 01:18:01;;;;;;;17.67;7.53;;;1.30;99.90;;;;;;5105287;28;20043;-65
2024/01/20 01:20:27;;;;;;;14.35;6.28;;;1.30;99.90;;;;;;5088731;28;20461;-64
2024/01/20 01:22:53;;;;;;;16.45;6.80;;;1.30;99.90;;;;;;5105380;28;20118;-65
2024/01/20 01:25:19;;;;;;;15.85;6.70;;;1.30;99.90;;;;;;5104293;28;20059;-65
2024/01/20 01:27:45;;;;;;;12.55;6.18;;;1.30;99.90;;;;;;5091320;28;20035;-66
2024/01/20 01:30:11;;;;;;;16.30;7.03;;;1.30;99.90;;;;;;5087667;28;20409;-65
2024/01/20 01:32:37;;;;;;;15.77;6.55;;;1.40;99.90;;;;;;5087868;28;20052;-65
2024/01/20 01:35:03;;;;;;;15.18;6.95;;;1.40;99.90;;;;;;5079249;28;20470;-64
2024/01/20 01:37:29;;;;;;;14.35;6.78;;;1.30;99.90;;;;;;5104819;28;20040;-65
2024/01/20 01:39:55;;;;;;;11.23;6.07;;;1.40;99.90;;;;;;5059329;28;20039;-64
2024/01/20 01:42:21;;;;;;;15.45;6.32;;;1.50;99.90;;;;;;5103663;28;20089;-64
2024/01/20 01:44:47;;;;;;;13.02;6.47;;;1.30;99.90;;;;;;5104517;28;20043;-64
2024/01/20 01:47:13;;;;;;;13.10;6.28;;;1.40;99.90;;;;;;5104844;28;20040;-65
2024/01/20 01:49:39;;;;;;;13.70;4.88;;;1.40;99.90;;;;;;5104117;28;20093;-65
2024/01/20 01:52:05;;;;;;;14.55;6.53;;;1.50;99.90;;;;;;5087509;28;20466;-65
2024/01/20 01:54:32;;;;;;;12.88;6.30;;;1.50;99.90;;;;;;5087300;28;20042;-64
2024/01/20 01:56:59;;;;;;;15.90;6.68;;;1.60;99.90;;;;;;5069641;28;20046;-64
2024/01/20 01:59:29;;;;;;;18.63;6.93;;;1.60;99.90;;;;;;5104215;28;20040;-65
2024/01/20 02:01:54;;;;;;;20.77;7.00;;;1.50;99.90;;;;;;5104000;28;20043;-64
2024/01/20 02:04:20;;;;;;;13.63;6.35;;;1.60;99.90;;;;;;5087448;28;20103;-64
2024/01/20 02:06:46;;;;;;;16.98;6.40;;;1.50;99.90;;;;;;5086685;28;20044;-65
2024/01/20 02:09:13;;;;;;;14.88;6.43;;;1.60;99.90;;;;;;5103319;28;20035;-64
2024/01/20 02:11:39;;;;;;;14.75;6.22;;;1.60;99.90;;;;;;5103367;28;20489;-64
2024/01/20 02:14:06;;;;;;;21.80;6.88;;;1.60;99.90;;;;;;5104002;28;20078;-64
2024/01/20 02:16:32;;;;;;;16.42;6.25;;;1.60;99.90;;;;;;5104629;28;20464;-65
2024/01/20 02:19:04;;;;;;;16.38;7.78;;;1.60;99.90;;;;;;5069463;28;20075;-64
2024/01/20 02:21:30;;;;;;;19.33;7.47;;;1.60;99.90;;;;;;5103714;28;20046;-64
2024/01/20 02:23:58;;;;;;;18.95;6.80;;;1.50;99.90;;;;;;5104512;28;20052;-64
2024/01/20 02:26:29;;;;;;;9.27;5.55;;;1.50;99.90;;;;;;5137461;27;20051;-64
2024/01/20 02:28:54;;;;;;;13.43;7.75;;;1.60;99.90;;;;;;5103374;28;20040;-64
2024/01/20 02:31:20;;;;;;;14.90;7.70;;;1.40;99.90;;;;;;5104121;28;20042;-64
2024/01/20 02:33:46;;;;;;;14.32;7.90;;;1.30;99.90;;;;;;5086599;28;20036;-64
2024/01/20 02:36:12;;;;;;;15.40;8.27;;;1.30;99.90;;;;;;5069839;28;20591;-65
2024/01/20 02:38:37;;;;;;;19.13;8.90;;;1.30;99.90;;;;;;5086911;28;20061;-65
2024/01/20 02:41:03;;;;;;;16.35;8.07;;;1.20;99.90;;;;;;5070154;28;20371;-66
2024/01/20 02:43:29;;;;;;;18.30;8.98;;;1.20;99.90;;;;;;5104387;28;20055;-64
2024/01/20 02:45:55;;;;;;;17.88;8.65;;;1.30;99.90;;;;;;5103226;28;20039;-64
2024/01/20 02:48:20;;;;;;;13.38;9.63;;;1.30;99.90;;;;;;5103777;28;20031;-65
2024/01/20 02:50:46;;;;;;;16.40;7.47;;;1.30;99.90;;;;;;5103560;28;20451;-63
2024/01/20 02:53:12;;;;;;;20.45;9.38;;;1.10;99.90;;;;;;5103526;28;20071;-64
2024/01/20 02:55:37;;;;;;;15.23;8.77;;;1.30;99.90;;;;;;5106542;27;20036;-63
2024/01/20 02:58:03;;;;;;;17.63;9.90;;;1.20;99.90;;;;;;5069603;28;20035;-65
2024/01/20 03:00:29;;;;;;;18.55;10.02;;;1.10;99.90;;;;;;5102367;28;20513;-64
2024/01/20 03:02:55;;;;;;;21.02;10.38;;;1.00;99.90;;;;;;5085813;28;20071;-63
2024/01/20 03:05:21;;;;;;;16.00;10.48;;;1.20;99.90;;;;;;5102509;28;20050;-65
2024/01/20 03:07:47;;;;;;;18.35;10.88;;;1.20;99.90;;;;;;5090165;28;20100;-64
2024/01/20 03:10:13;;;;;;;16.52;9.95;;;1.10;99.90;;;;;;5103145;28;20679;-64
2024/01/20 03:12:39;;;;;;;22.77;10.35;;;1.10;99.90;;;;;;5103097;28;20699;-63
2024/01/20 03:15:09;;;;;;;17.25;10.35;;;1.20;99.90;;;;;;5086243;28;20130;-66
2024/01/20 03:17:35;;;;;;;14.18;9.10;;;1.10;99.90;;;;;;5101255;28;20097;-64
2024/01/20 03:20:01;;;;;;;20.80;10.73;;;1.20;99.90;;;;;;5085527;28;20070;-64
2024/01/20 03:22:27;;;;;;;20.67;10.95;;;1.10;99.90;;;;;;5086392;28;20086;-63
2024/01/20 03:24:52;;;;;;;18.27;10.60;;;1.10;99.90;;;;;;5085866;28;20626;-64
2024/01/20 03:27:19;;;;;;;20.20;12.23;;;1.10;99.90;;;;;;5071418;28;20089;-65
2024/01/20 03:29:44;;;;;;;19.55;11.63;;;1.10;99.90;;;;;;5100746;28;20050;-64
2024/01/20 03:32:10;;;;;;;26.42;12.40;;;1.00;99.90;;;;;;5071158;28;20456;-64
2024/01/20 03:34:37;;;;;;;23.20;13.25;;;1.00;99.90;;;;;;5054955;28;20043;-64
2024/01/20 03:37:03;;;;;;;23.15;13.90;;;0.90;99.90;;;;;;5074807;28;20980;-64
2024/01/20 03:39:29;;;;;;;19.50;13.48;;;0.90;99.90;;;;;;5087754;28;20571;-64
2024/01/20 03:41:54;;;;;;;19.17;14.68;;;0.90;99.90;;;;;;5087942;28;20172;-64
2024/01/20 03:44:20;;;;;;;26.90;14.60;;;1.00;99.90;;;;;;5087858;28;20368;-65
2024/01/20 03:46:46;;;;;;;21.30;14.38;;;1.00;99.90;;;;;;5072076;28;20581;-64
2024/01/20 03:49:12;;;;;;;25.80;15.95;;;0.90;99.90;;;;;;5087945;28;20039;-65
2024/01/20 03:51:38;;;;;;;20.15;15.52;;;0.90;99.90;;;;;;5074969;28;20039;-64
2024/01/20 03:54:04;;;;;;;24.45;16.30;;;0.70;99.90;;;;;;5087334;28;20421;-65
2024/01/20 03:56:30;;;;;;;24.95;17.80;;;0.80;99.90;;;;;;5054638;28;20346;-65
2024/01/20 03:58:56;;;;;;;27.63;17.10;;;0.80;99.90;;;;;;5071324;28;20387;-65
2024/01/20 04:01:22;;;;;;;25.70;17.67;;;0.80;99.90;;;;;;5070878;28;20043;-65
2024/01/20 04:03:48;;;;;;;25.15;18.40;;;0.80;99.90;;;;;;5070638;28;20130;-65
2024/01/20 04:06:14;;;;;;;27.85;19.55;;;0.80;99.90;;;;;;5070767;28;20039;-65
2024/01/20 04:08:39;;;;;;;29.15;19.70;;;0.70;99.90;;;;;;5053729;28;20032;-65
2024/01/20 04:11:05;;;;;;;29.50;19.55;;;0.80;99.90;;;;;;5043139;28;20070;-65
2024/01/20 04:13:31;;;;;;;32.90;21.67;;;0.60;99.90;;;;;;5091562;28;20506;-64
2024/01/20 04:15:58;;;;;;;26.08;19.27;;;0.70;99.90;;;;;;5091027;28;20047;-67
2024/01/20 04:18:23;;;;;;;30.33;21.60;;;0.60;99.90;;;;;;5074069;28;20979;-65
2024/01/20 04:20:49;;;;;;;30.90;19.88;;;0.60;99.90;;;;;;5073054;28;20059;-65
2024/01/20 04:23:15;;;;;;;32.63;22.38;;;0.60;99.90;;;;;;5073940;28;20058;-65
2024/01/20 04:25:41;;;;;;;27.65;21.40;;;0.60;99.90;;;;;;5091286;28;20043;-65
2024/01/20 04:28:06;;;;;;;33.63;23.73;;;0.50;99.90;;;;;;5057374;28;20101;-66
2024/01/20 04:30:32;;;;;;;32.22;22.25;;;0.50;99.90;;;;;;5091965;28;20529;-65
2024/01/20 04:32:58;;;;;;;30.25;23.58;;;0.50;99.90;;;;;;5073973;27;20039;-66
2024/01/20 04:35:23;;;;;;;30.38;22.77;;;0.60;99.90;;;;;;5074031;28;20095;-65
2024/01/20 04:37:49;;;;;;;32.08;23.25;;;0.50;99.90;;;;;;5099935;27;20400;-64
2024/01/20 04:40:15;;;;;;;30.30;21.17;;;0.70;99.90;;;;;;5073058;28;20418;-64
2024/01/20 04:42:40;;;;;;;33.20;21.38;;;0.60;99.90;;;;;;5064644;28;20544;-64
2024/01/20 04:45:07;;;;;;;35.97;23.58;;;0.70;99.90;;;;;;5061850;28;20552;-64
2024/01/20 04:47:33;;;;;;;32.88;23.70;;;0.60;99.90;;;;;;5073619;28;20040;-64
2024/01/20 04:49:59;;;;;;;31.35;21.70;;;0.60;99.90;;;;;;5080882;28;20035;-64
2024/01/20 04:52:25;;;;;;;31.00;23.63;;;0.80;99.90;;;;;;5080729;28;20179;-64
2024/01/20 04:54:52;;;;;;;35.22;23.42;;;0.80;99.90;;;;;;5089543;28;20103;-64
2024/01/20 04:57:20;;;;;;;38.30;24.13;;;0.70;99.90;;;;;;5073467;28;20119;-64
2024/01/20 04:59:47;;;;;;;29.70;21.77;;;0.70;99.90;;;;;;5073989;28;20334;-64
2024/01/20 05:02:13;;;;;;;31.02;20.27;;;0.60;99.90;;;;;;5088909;28;20297;-64
2024/01/20 05:04:39;;;;;;;35.85;25.67;;;0.60;99.90;;;;;;5078837;28;20478;-64
2024/01/20 05:07:05;;;;;;;32.33;24.20;;;0.40;99.90;;;;;;5090825;28;20541;-64
2024/01/20 05:09:31;;;;;;;29.35;24.08;;;0.40;99.90;;;;;;5055733;28;20172;-64
2024/01/20 05:11:57;;;;;;;41.78;25.73;;;0.30;99.90;;;;;;5090312;28;20039;-63
2024/01/20 05:14:22;;;;;;;35.22;26.55;;;0.20;99.90;;;;;;5073525;28;20108;-64
2024/01/20 05:16:48;;;;;;;32.78;22.98;;;0.10;99.90;;;;;;5073198;28;20229;-64
2024/01/20 05:19:14;;;;;;;37.30;26.60;;;0.10;99.90;;;;;;5064083;28;20048;-66
2024/01/20 05:21:39;;;;;;;36.47;27.08;;;0.20;99.90;;;;;;5055566;28;20613;-65
2024/01/20 05:24:05;;;;;;;27.05;17.90;;;0.20;99.90;;;;;;5072863;28;20372;-64
2024/01/20 05:26:31;;;;;;;37.63;26.48;;;0.00;99.90;;;;;;5090326;28;20040;-64
2024/01/20 05:28:57;;;;;;;39.63;27.90;;;0.20;99.90;;;;;;5090750;28;20043;-63
2024/01/20 05:31:31;;;;;;;40.42;30.65;;;-0.10;99.90;;;;;;5062328;28;20473;-67
2024/01/20 05:33:57;;;;;;;35.40;26.75;;;-0.10;99.90;;;;;;5089968;28;20042;-64
2024/01/20 05:36:23;;;;;;;39.22;30.40;;;0.10;99.90;;;;;;5071829;28;20120;-64
2024/01/20 05:38:49;;;;;;;42.35;31.98;;;0.00;99.90;;;;;;5056298;28;20587;-64
2024/01/20 05:41:15;;;;;;;39.97;27.85;;;-0.10;99.90;;;;;;5059795;28;20066;-63
2024/01/20 05:43:40;;;;;;;35.80;23.92;;;-0.10;99.90;;;;;;5089848;28;20496;-64
2024/01/20 05:46:06;;;;;;;40.90;30.30;;;0.00;99.90;;;;;;5071359;28;20429;-64
2024/01/20 05:48:34;;;;;;;41.58;29.98;;;-0.10;99.90;;;;;;5089863;28;20035;-64
2024/01/20 05:51:00;;;;;;;41.25;30.48;;;0.10;99.90;;;;;;5072143;28;20332;-64
2024/01/20 05:53:26;;;;;;;48.88;32.95;;;-0.10;99.90;;;;;;5072006;28;20253;-63
2024/01/20 05:55:52;;;;;;;46.50;31.60;;;0.10;99.90;;;;;;5089762;28;20277;-64
2024/01/20 05:58:17;;;;;;;34.95;22.67;;;0.00;99.90;;;;;;5106163;27;20293;-63
2024/01/20 06:00:43;;;;;;;50.15;30.98;;;-0.10;99.90;;;;;;5060344;28;20039;-64
2024/01/20 06:03:09;;;;;;;31.88;21.98;;;0.00;99.90;;;;;;5055446;28;20047;-64
2024/01/20 06:05:34;;;;;;;41.05;27.77;;;0.10;99.90;;;;;;5072239;28;20032;-65
2024/01/20 06:08:00;;;;;;;44.45;31.80;;;-0.10;99.90;;;;;;5072752;28;20043;-64
2024/01/20 06:10:26;;;;;;;44.90;33.05;;;-0.20;99.90;;;;;;5055494;28;20560;-67
2024/01/20 06:12:52;;;;;;;49.25;33.53;;;-0.10;99.90;;;;;;5088982;28;20066;-64
2024/01/20 06:15:18;;;;;;;43.35;31.67;;;0.00;99.90;;;;;;5072735;28;20054;-64
2024/01/20 06:17:43;;;;;;;48.35;33.28;;;-0.20;99.90;;;;;;5071720;28;20074;-64
2024/01/20 06:20:10;;;;;;;50.42;33.58;;;-0.30;99.90;;;;;;5088675;28;20313;-64
2024/01/20 06:22:39;;;;;;;51.72;33.88;;;-0.20;99.90;;;;;;5071656;28;20035;-64
2024/01/20 06:25:05;;;;;;;50.10;33.80;;;-0.40;99.90;;;;;;5073111;28;20262;-64
2024/01/20 06:27:31;;;;;;;53.75;33.58;;;-0.40;99.90;;;;;;5055007;28;20422;-64
2024/01/20 06:29:56;;;;;;;47.25;29.88;;;-0.10;99.90;;;;;;5088108;28;20039;-64
2024/01/20 06:32:22;;;;;;;48.35;32.70;;;-0.30;99.90;;;;;;5070119;28;20417;-64
2024/01/20 06:34:48;;;;;;;47.13;29.77;;;-0.30;99.90;;;;;;5087455;28;20070;-64
2024/01/20 06:37:13;;;;;;;47.47;30.38;;;-0.40;99.90;;;;;;5071558;28;20070;-64
2024/01/20 06:39:41;;;;;;;47.33;32.60;;;-0.30;99.90;;;;;;5041512;28;20045;-64
2024/01/20 06:42:07;;;;;;;51.47;31.58;;;-0.40;99.90;;;;;;5055011;28;20044;-64
2024/01/20 06:44:33;;;;;;;44.97;27.05;;;-0.30;99.90;;;;;;5076099;28;20255;-66
2024/01/20 06:46:59;;;;;;;51.13;34.15;;;-0.50;99.90;;;;;;5055209;28;20042;-64
2024/01/20 06:49:25;;;;;;;52.30;32.13;;;-0.30;99.90;;;;;;5072443;28;20332;-63
2024/01/20 06:51:50;;;;;;;50.92;33.55;;;-0.40;99.90;;;;;;5089934;28;20456;-63
2024/01/20 06:54:16;;;;;;;49.65;33.88;;;-0.60;99.90;;;;;;5055475;28;20409;-62
2024/01/20 06:56:42;;;;;;;45.10;28.17;;;-0.40;99.90;;;;;;5059913;28;20046;-63
2024/01/20 06:59:08;;;;;;;60.75;37.03;;;-0.50;99.90;;;;;;5092135;28;20051;-65
2024/01/20 07:01:34;;;;;;;56.05;34.92;;;-0.50;99.90;;;;;;5072890;28;20042;-63
2024/01/20 07:04:00;;;;;;;55.13;32.70;;;-0.70;99.90;;;;;;5089414;28;20497;-63
2024/01/20 07:06:26;;;;;;;57.13;35.17;;;-0.70;99.90;;;;;;5078044;28;20112;-63
2024/01/20 07:08:52;;;;;;;57.53;34.95;;;-0.70;99.90;;;;;;5072579;28;20067;-63
2024/01/20 07:11:18;;;;;;;53.60;32.40;;;-0.70;99.90;;;;;;5073411;28;20123;-64
2024/01/20 07:13:44;;;;;;;60.35;34.22;;;-0.60;99.90;;;;;;5092535;27;20040;-63
2024/01/20 07:16:11;;;;;;;52.25;32.38;;;-0.60;99.90;;;;;;5072071;28;20483;-63
2024/01/20 07:18:38;;;;;;;58.15;34.40;;;-0.70;99.90;;;;;;5072731;28;21432;-63
2024/01/20 07:21:04;;;;;;;58.25;36.05;;;-0.40;99.90;;;;;;5073344;28;20153;-63
2024/01/20 07:23:30;;;;;;;60.28;36.03;;;-0.60;99.90;;;;;;5072106;28;20031;-63
2024/01/20 07:25:58;;;;;;;59.85;35.05;;;-0.40;99.90;;;;;;5076839;28;20039;-64
2024/01/20 07:28:24;;;;;;;67.15;37.28;;;-0.60;99.90;;;;;;5088625;28;20035;-65
2024/01/20 07:30:50;;;;;;;60.28;35.83;;;-0.50;99.90;;;;;;5104524;27;20051;-63
2024/01/20 07:33:16;;;;;;;57.00;33.40;;;-0.70;99.90;;;;;;5072109;28;20164;-63
2024/01/20 07:35:42;;;;;;;60.00;36.30;;;-0.50;99.90;;;;;;5071949;28;20075;-64
2024/01/20 07:38:08;;;;;;;60.58;34.90;;;-0.50;99.90;;;;;;5071607;28;20086;-63
2024/01/20 07:40:34;;;;;;;67.13;35.72;;;-0.70;99.90;;;;;;5072894;28;20126;-63
2024/01/20 07:43:00;;;;;;;61.78;35.08;;;-0.70;99.90;;;;;;5072483;28;20058;-64
2024/01/20 07:45:28;;;;;;;44.03;24.40;;;-0.50;99.90;;;;;;5074709;28;20046;-63
2024/01/20 07:47:54;;;;;;;58.35;31.45;;;-0.60;99.90;;;;;;5078256;28;20043;-63
2024/01/20 07:50:21;;;;;;;63.15;36.28;;;-0.60;99.90;;;;;;5077350;28;20085;-63
2024/01/20 07:52:46;;;;;;;50.42;29.13;;;-0.30;99.90;;;;;;5061128;28;20517;-63
2024/01/20 07:55:12;;;;;;;57.22;33.45;;;-0.30;99.90;;;;;;5111713;27;20054;-63
2024/01/20 07:57:39;;;;;;;49.90;28.55;;;-0.40;99.90;;;;;;5098271;27;20101;-64
2024/01/20 08:00:06;;;;;;;59.42;34.95;;;-0.30;99.90;;;;;;5077058;28;20043;-63
2024/01/20 08:02:32;;;;;;;60.20;36.05;;;-0.10;99.90;;;;;;5077778;28;20078;-65
2024/01/20 08:04:58;;;;;;;58.58;31.63;;;-0.20;99.90;;;;;;5077072;28;20158;-63
2024/01/20 08:07:24;;;;;;;51.00;28.50;;;-0.10;99.90;;;;;;5059284;28;20501;-65
2024/01/20 08:09:50;;;;;;;55.50;31.15;;;-0.30;99.90;;;;;;5077283;28;20587;-64
2024/01/20 08:12:16;;;;;;;55.95;31.20;;;-0.20;99.90;;;;;;5077029;28;20052;-64
2024/01/20 08:14:41;;;;;;;49.47;30.08;;;0.00;99.90;;;;;;5059670;28;20043;-64
2024/01/20 08:17:08;;;;;;;55.97;33.85;;;-0.20;99.90;;;;;;5077006;28;20075;-65
2024/01/20 08:19:34;;;;;;;59.35;34.05;;;-0.10;99.90;;;;;;5093744;28;20044;-63
2024/01/20 08:21:59;;;;;;;55.35;32.47;;;0.00;99.90;;;;;;5059707;28;20487;-63
2024/01/20 08:24:25;;;;;;;54.72;32.60;;;0.10;99.90;;;;;;5061707;28;20039;-64
2024/01/20 08:26:51;;;;;;;59.20;31.58;;;0.30;99.90;;;;;;5076275;28;20123;-63
2024/01/20 08:29:17;;;;;;;54.67;31.80;;;0.30;99.90;;;;;;5075097;28;20048;-64
2024/01/20 08:31:43;;;;;;;50.08;29.48;;;0.30;99.90;;;;;;5059530;28;20039;-63
2024/01/20 08:34:09;;;;;;;49.20;29.63;;;0.40;99.90;;;;;;5091698;28;20050;-65
2024/01/20 08:36:35;;;;;;;41.33;25.65;;;0.50;99.90;;;;;;5056866;28;20322;-64
2024/01/20 08:39:00;;;;;;;52.35;31.88;;;0.70;99.90;;;;;;5061881;28;20157;-64
2024/01/20 08:41:26;;;;;;;48.67;29.83;;;0.80;99.90;;;;;;5075779;28;20074;-66
2024/01/20 08:43:52;;;;;;;43.97;26.52;;;0.90;99.90;;;;;;5092803;28;20556;-66
2024/01/20 08:46:18;;;;;;;46.05;27.27;;;0.90;99.90;;;;;;5076282;28;20039;-67
2024/01/20 08:48:44;;;;;;;50.80;30.45;;;1.10;99.90;;;;;;5093348;28;20627;-65
2024/01/20 08:51:09;;;;;;;48.03;28.95;;;1.00;99.90;;;;;;5092907;28;20421;-64
2024/01/20 08:53:36;;;;;;;45.97;27.10;;;1.10;99.90;;;;;;5075666;28;20243;-63
2024/01/20 08:56:03;;;;;;;54.20;30.77;;;1.00;99.90;;;;;;5059412;28;20043;-64
2024/01/20 08:58:29;;;;;;;48.72;29.83;;;1.10;99.90;;;;;;5091362;28;20480;-63
2024/01/20 09:00:55;;;;;;;53.67;30.42;;;1.30;99.90;;;;;;5075857;28;20043;-64
2024/01/20 09:03:21;;;;;;;44.88;25.40;;;1.20;99.90;;;;;;5075960;28;20069;-63
2024/01/20 09:05:47;;;;;;;50.65;30.58;;;1.20;99.90;;;;;;5092429;28;20103;-64
2024/01/20 09:08:13;;;;;;;52.08;31.00;;;1.20;99.90;;;;;;5059316;28;20485;-63
2024/01/20 09:10:39;;;;;;;47.15;29.77;;;1.30;99.90;;;;;;5076378;28;20045;-64
2024/01/20 09:13:07;;;;;;;53.60;31.05;;;1.40;99.90;;;;;;5092182;28;20071;-64
2024/01/20 09:15:33;;;;;;;45.83;29.30;;;1.30;99.90;;;;;;5091768;28;20054;-65
2024/01/20 09:17:59;;;;;;;46.28;28.25;;;1.40;99.90;;;;;;5092630;28;20063;-64
2024/01/20 09:20:25;;;;;;;52.10;29.40;;;1.40;99.90;;;;;;5075443;28;20047;-65
2024/01/20 09:22:51;;;;;;;47.90;30.15;;;1.40;99.90;;;;;;5075907;28;20079;-64
2024/01/20 09:25:17;;;;;;;47.85;28.48;;;1.60;99.90;;;;;;5075662;28;20718;-65
2024/01/20 09:27:43;;;;;;;50.45;30.00;;;1.40;99.90;;;;;;5092185;28;20171;-64
2024/01/20 09:30:10;;;;;;;43.22;24.98;;;1.40;99.90;;;;;;5075603;28;20261;-66
2024/01/20 09:32:36;;;;;;;44.22;27.13;;;1.50;99.90;;;;;;5075050;28;20048;-65
2024/01/20 09:35:05;;;;;;;47.75;30.10;;;1.40;99.90;;;;;;5075644;28;20052;-65
2024/01/20 09:37:31;;;;;;;52.72;30.85;;;1.60;99.90;;;;;;5092361;28;20611;-64
2024/01/20 09:39:57;;;;;;;47.42;30.02;;;1.50;99.90;;;;;;5058901;28;20051;-65
2024/01/20 09:42:24;;;;;;;49.05;29.13;;;1.50;99.90;;;;;;5074624;28;20050;-64
2024/01/20 09:44:51;;;;;;;50.50;29.45;;;1.60;99.90;;;;;;5074507;28;20112;-65
2024/01/20 09:47:17;;;;;;;50.80;29.27;;;1.60;99.90;;;;;;5057918;28;20046;-65
2024/01/20 09:49:43;;;;;;;46.50;28.90;;;1.60;99.90;;;;;;5058301;28;20047;-64
2024/01/20 09:52:17;;;;;;;51.42;29.85;;;1.70;99.90;;;;;;5058676;28;20204;-65
2024/01/20 09:54:59;;;;;;;49.97;28.60;;;1.60;99.90;;;;;;5075282;28;20542;-65
2024/01/20 09:57:27;;;;;;;47.30;28.92;;;1.80;99.90;;;;;;5091796;28;20559;-64
2024/01/20 09:59:56;;;;;;;52.05;30.98;;;1.80;99.90;;;;;;5057711;28;20092;-65
2024/01/20 10:02:26;;;;;;;45.53;27.77;;;1.60;99.90;;;;;;5108485;27;20066;-65
2024/01/20 10:04:55;;;;;;;46.03;29.67;;;1.80;99.90;;;;;;5091704;28;20054;-65
2024/01/20 10:07:28;;;;;;;48.85;28.58;;;1.80;99.90;;;;;;5074528;28;20105;-65
2024/01/20 10:09:54;;;;;;;50.60;30.48;;;1.80;99.90;;;;;;5074637;28;20044;-65
2024/01/20 10:12:20;;;;;;;50.53;29.40;;;1.70;99.90;;;;;;5074167;28;20031;-65
2024/01/20 10:14:46;;;;;;;44.33;27.77;;;1.80;99.90;;;;;;5092199;28;20270;-64
2024/01/20 10:17:12;;;;;;;45.55;26.67;;;1.90;99.90;;;;;;5074720;28;20342;-65
2024/01/20 10:19:38;;;;;;;50.47;27.90;;;1.90;99.90;;;;;;5091136;28;20047;-66
2024/01/20 10:22:11;;;;;;;50.50;28.58;;;2.00;99.90;;;;;;5074357;28;20209;-65
2024/01/20 10:24:46;;;;;;;44.97;27.27;;;2.00;99.90;;;;;;5074263;28;20070;-65
2024/01/20 10:27:18;;;;;;;44.17;27.08;;;2.00;99.90;;;;;;5074931;28;20043;-63
2024/01/20 10:29:45;;;;;;;45.75;28.30;;;2.00;99.90;;;;;;5057938;28;20039;-64
2024/01/20 10:32:11;;;;;;;46.45;26.63;;;2.10;99.90;;;;;;5090963;28;20554;-63
2024/01/20 10:34:38;;;;;;;41.53;26.33;;;2.10;99.90;;;;;;5074505;28;20389;-64
2024/01/20 10:37:11;;;;;;;42.20;26.25;;;2.20;99.90;;;;;;5074622;28;20053;-63
2024/01/20 10:39:44;;;;;;;40.90;25.70;;;2.30;99.90;;;;;;5091259;28;20481;-63
2024/01/20 10:42:15;;;;;;;36.92;20.98;;;2.20;99.90;;;;;;5073620;28;20055;-63
2024/01/20 10:44:50;;;;;;;39.72;25.63;;;2.30;99.90;;;;;;5092257;28;20043;-63
2024/01/20 10:47:22;;;;;;;35.67;20.73;;;2.20;99.90;;;;;;5091512;28;20044;-63
2024/01/20 10:49:49;;;;;;;38.75;24.60;;;2.30;99.90;;;;;;5090888;28;20277;-63
2024/01/20 10:52:16;;;;;;;43.00;24.77;;;2.40;99.90;;;;;;5090741;28;20031;-64
2024/01/20 10:54:43;;;;;;;45.92;26.08;;;2.30;99.90;;;;;;5107938;27;20162;-63
2024/01/20 10:57:10;;;;;;;40.75;24.77;;;2.50;99.90;;;;;;5074304;28;20380;-63
2024/01/20 10:59:41;;;;;;;36.65;19.65;;;2.40;99.90;;;;;;5091264;28;20043;-63
2024/01/20 11:02:10;;;;;;;43.72;23.60;;;2.40;99.90;;;;;;5090889;28;20054;-63
2024/01/20 11:04:37;;;;;;;42.08;24.45;;;2.40;99.90;;;;;;5090603;28;20073;-63
2024/01/20 11:07:05;;;;;;;43.42;24.45;;;2.50;99.90;;;;;;5091017;28;20113;-64
2024/01/20 11:09:32;;;;;;;34.90;21.70;;;2.60;99.90;;;;;;5090587;28;20130;-63
2024/01/20 11:12:00;;;;;;;40.03;23.90;;;2.50;99.90;;;;;;5090916;28;20331;-63
2024/01/20 11:14:30;;;;;;;42.42;24.10;;;2.70;99.90;;;;;;5090811;28;20959;-65
2024/01/20 11:16:56;;;;;;;38.08;24.80;;;2.60;99.90;;;;;;5090342;28;20505;-63
2024/01/20 11:19:22;;;;;;;36.08;23.23;;;2.60;99.90;;;;;;5090406;28;20047;-63
2024/01/20 11:21:48;;;;;;;36.10;22.42;;;2.70;99.90;;;;;;5072999;28;20050;-65
2024/01/20 11:24:16;;;;;;;38.83;21.80;;;2.80;99.90;;;;;;5073088;28;20422;-64
2024/01/20 11:26:42;;;;;;;32.78;20.63;;;2.70;99.90;;;;;;5091093;28;20627;-63
2024/01/20 11:29:09;;;;;;;37.75;23.00;;;2.80;99.90;;;;;;5090210;28;20051;-64
2024/01/20 11:31:35;;;;;;;37.50;22.80;;;2.90;99.90;;;;;;5090549;28;20043;-63
2024/01/20 11:34:04;;;;;;;36.67;24.30;;;3.00;99.90;;;;;;5073363;28;20040;-63
2024/01/20 11:36:31;;;;;;;31.80;19.80;;;2.90;99.90;;;;;;5090656;28;20988;-64
2024/01/20 11:38:59;;;;;;;37.92;22.00;;;2.90;99.90;;;;;;5090518;28;20852;-63
2024/01/20 11:41:25;;;;;;;39.45;23.52;;;3.00;99.90;;;;;;5092743;28;20100;-63
2024/01/20 11:43:51;;;;;;;39.90;23.63;;;2.90;99.90;;;;;;5090347;28;20047;-66
2024/01/20 11:46:18;;;;;;;35.47;23.00;;;3.00;99.90;;;;;;5073277;28;20050;-63
2024/01/20 11:48:48;;;;;;;33.28;22.13;;;3.00;99.90;;;;;;5090271;28;20028;-64
2024/01/20 11:51:15;;;;;;;35.00;22.60;;;2.90;99.90;;;;;;5090318;28;20086;-64
2024/01/20 11:53:42;;;;;;;36.78;24.25;;;2.80;99.90;;;;;;5090782;28;20078;-64
2024/01/20 11:56:09;;;;;;;36.15;24.27;;;2.80;99.90;;;;;;5107584;27;20213;-63
2024/01/20 11:58:34;;;;;;;36.08;22.45;;;2.80;99.90;;;;;;5090189;28;20082;-64
2024/01/20 12:01:40;;;;;;;43.60;23.00;;;2.70;99.90;;;;;;5073473;28;20143;-63
2024/01/20 12:04:21;;;;;;;40.15;25.73;;;2.60;99.90;;;;;;5071175;28;20086;-64
2024/01/20 12:06:48;;;;;;;41.63;25.88;;;2.60;99.90;;;;;;5073256;28;20100;-64
2024/01/20 12:09:15;;;;;;;40.92;26.13;;;2.60;99.90;;;;;;5054648;28;20043;-64
2024/01/20 12:11:44;;;;;;;38.17;24.58;;;2.60;99.90;;;;;;5072966;28;20319;-63
2024/01/20 12:14:11;;;;;;;40.88;25.70;;;2.50;99.90;;;;;;5073209;28;20429;-63
2024/01/20 12:16:37;;;;;;;40.45;26.15;;;2.50;99.90;;;;;;5089128;27;20039;-63
2024/01/20 12:19:03;;;;;;;41.05;24.38;;;2.60;99.90;;;;;;5089857;28;20416;-62
2024/01/20 12:21:29;;;;;;;42.83;26.92;;;2.50;99.90;;;;;;5090348;28;20042;-64
2024/01/20 12:23:56;;;;;;;41.13;24.80;;;2.40;99.90;;;;;;5088972;28;20044;-65
2024/01/20 12:26:22;;;;;;;43.63;28.27;;;2.40;99.90;;;;;;5071956;28;20052;-64
2024/01/20 12:28:50;;;;;;;40.55;24.65;;;2.50;99.90;;;;;;5091442;28;20039;-63
2024/01/20 12:31:17;;;;;;;41.92;24.48;;;2.30;99.90;;;;;;5071387;28;20539;-62
2024/01/20 12:33:43;;;;;;;39.40;25.58;;;2.30;99.90;;;;;;5076830;28;20039;-64